createdAt,value
2023-04-17T00:02:45.092Z,10.30
2023-04-17T00:05:34.174Z,10.30
2023-04-17T00:08:23.047Z,10.30
2023-04-17T00:11:11.849Z,10.10
2023-04-17T00:14:00.596Z,10.10
2023-04-17T00:16:49.632Z,10.10
2023-04-17T00:19:39.718Z,10.10
2023-04-17T00:22:28.447Z,10.10
2023-04-17T00:25:17.263Z,10.20
2023-04-17T00:28:06.620Z,10.20
2023-04-17T00:30:55.663Z,10.10
2023-04-17T00:33:46.270Z,10.00
2023-04-17T00:36:36.412Z,9.90
2023-04-17T00:39:25.118Z,10.10
2023-04-17T00:42:13.822Z,10.20
2023-04-17T00:45:02.590Z,10.10
2023-04-17T00:47:52.971Z,10.10
2023-04-17T00:50:43.050Z,10.10
2023-04-17T00:53:34.265Z,10.00
2023-04-17T00:56:23.753Z,10.00
2023-04-17T00:59:13.987Z,10.10
2023-04-17T01:02:03.560Z,10.10
2023-04-17T01:04:52.567Z,10.00
2023-04-17T01:07:42.484Z,10.00
2023-04-17T01:10:33.201Z,10.10
2023-04-17T01:13:21.941Z,10.10
2023-04-17T01:16:10.913Z,10.10
2023-04-17T01:19:00.353Z,10.20
2023-04-17T01:21:49.269Z,10.10
2023-04-17T01:24:39.807Z,9.90
2023-04-17T01:27:28.750Z,10.10
2023-04-17T01:30:17.975Z,10.10
2023-04-17T01:33:28.219Z,10.10
2023-04-17T01:36:17.562Z,10.20
2023-04-17T01:39:08.098Z,10.20
2023-04-17T01:41:58.306Z,10.20
2023-04-17T01:44:47.065Z,10.20
2023-04-17T01:47:36.071Z,10.30
2023-04-17T01:50:24.906Z,10.30
2023-04-17T01:53:13.908Z,10.30
2023-04-17T01:56:03.191Z,10.20
2023-04-17T01:58:53.377Z,10.10
2023-04-17T02:01:42.157Z,10.40
2023-04-17T02:04:31.202Z,10.40
2023-04-17T02:07:19.923Z,10.40
2023-04-17T02:10:10.234Z,10.40
2023-04-17T02:12:58.931Z,10.40
2023-04-17T02:15:49.753Z,10.30
2023-04-17T02:18:38.577Z,10.10
2023-04-17T02:21:28.440Z,10.10
2023-04-17T02:24:18.765Z,10.20
2023-04-17T02:27:10.031Z,10.20
2023-04-17T02:29:58.714Z,10.20
2023-04-17T02:32:49.014Z,10.10
2023-04-17T02:35:37.705Z,10.10
2023-04-17T02:38:30.500Z,10.00
2023-04-17T02:41:19.262Z,10.10
2023-04-17T02:44:08.277Z,10.10
2023-04-17T02:46:57.122Z,10.20
2023-04-17T02:49:48.210Z,10.00
2023-04-17T02:52:36.890Z,10.00
2023-04-17T02:55:25.754Z,10.00
2023-04-17T02:58:14.589Z,10.00
2023-04-17T03:01:04.508Z,10.00
2023-04-17T03:03:58.012Z,10.00
2023-04-17T03:06:48.208Z,10.00
2023-04-17T03:09:37.133Z,10.00
2023-04-17T03:12:26.889Z,10.00
2023-04-17T03:15:15.682Z,9.90
2023-04-17T03:18:05.803Z,10.00
2023-04-17T03:20:55.281Z,9.90
2023-04-17T03:23:45.285Z,9.80
2023-04-17T03:26:34.527Z,9.80
2023-04-17T03:29:28.376Z,9.80
2023-04-17T03:32:17.505Z,9.70
2023-04-17T03:35:07.774Z,9.80
2023-04-17T03:37:56.466Z,9.80
2023-04-17T03:40:47.100Z,9.80
2023-04-17T03:43:36.082Z,9.70
2023-04-17T03:46:24.934Z,9.80
2023-04-17T03:49:14.910Z,9.80
2023-04-17T03:52:04.743Z,9.70
2023-04-17T03:54:54.477Z,9.90
2023-04-17T03:57:44.726Z,9.90
2023-04-17T04:00:33.881Z,9.80
2023-04-17T04:03:29.535Z,9.80
2023-04-17T04:06:20.447Z,9.80
2023-04-17T04:09:10.523Z,9.70
2023-04-17T04:11:59.862Z,9.80
2023-04-17T04:14:51.833Z,9.80
2023-04-17T04:17:41.250Z,9.90
2023-04-17T04:20:30.115Z,9.80
2023-04-17T04:23:31.153Z,9.70
2023-04-17T04:26:21.956Z,9.80
2023-04-17T04:29:14.836Z,9.80
2023-04-17T04:32:19.882Z,9.70
2023-04-17T04:35:11.778Z,9.80
2023-04-17T04:38:02.479Z,9.70
2023-04-17T04:40:53.826Z,9.70
2023-04-17T04:43:42.638Z,9.60
2023-04-17T04:46:32.197Z,9.70
2023-04-17T04:49:22.445Z,9.80
2023-04-17T04:52:11.111Z,9.70
2023-04-17T04:55:00.071Z,9.70
2023-04-17T04:57:48.822Z,9.80
2023-04-17T05:00:37.564Z,9.60
2023-04-17T05:03:27.129Z,9.60
2023-04-17T05:06:17.545Z,9.80
2023-04-17T05:09:11.004Z,9.90
2023-04-17T05:12:00.113Z,9.90
2023-04-17T05:14:49.239Z,9.90
2023-04-17T05:17:41.957Z,10.00
2023-04-17T05:20:32.159Z,9.80
2023-04-17T05:23:23.067Z,9.80
2023-04-17T05:26:13.169Z,9.90
2023-04-17T05:29:02.201Z,9.80
2023-04-17T05:31:53.350Z,9.90
2023-04-17T05:35:01.036Z,9.90
2023-04-17T05:37:52.022Z,9.80
2023-04-17T05:40:42.201Z,10.20
2023-04-17T05:43:32.223Z,10.30
2023-04-17T05:46:22.271Z,10.40
2023-04-17T05:49:11.237Z,10.30
2023-04-17T05:52:01.135Z,10.30
2023-04-17T05:54:50.388Z,10.40
2023-04-17T05:57:42.355Z,10.40
2023-04-17T06:00:31.963Z,10.50
2023-04-17T06:03:27.251Z,10.60
2023-04-17T06:06:26.604Z,10.80
2023-04-17T06:09:15.975Z,10.90
2023-04-17T06:12:04.960Z,10.70
2023-04-17T06:14:57.622Z,10.70
2023-04-17T06:17:46.483Z,10.50
2023-04-17T06:20:35.610Z,10.50
2023-04-17T06:23:24.704Z,10.80
2023-04-17T06:26:14.131Z,11.00
2023-04-17T06:29:04.060Z,11.00
2023-04-17T06:31:55.930Z,11.00
2023-04-17T06:34:58.597Z,10.80
2023-04-17T06:38:01.452Z,11.00
2023-04-17T06:40:52.128Z,11.20
2023-04-17T06:43:41.957Z,11.20
2023-04-17T06:46:37.021Z,11.20
2023-04-17T06:49:27.522Z,11.10
2023-04-17T06:52:17.872Z,11.20
2023-04-17T06:55:08.539Z,11.70
2023-04-17T06:57:57.207Z,11.80
2023-04-17T07:00:45.958Z,11.80
2023-04-17T07:03:35.160Z,11.50
2023-04-17T07:06:26.760Z,11.60
2023-04-17T07:09:15.545Z,11.30
2023-04-17T07:12:05.038Z,11.60
2023-04-17T07:14:53.937Z,11.60
2023-04-17T07:17:42.750Z,11.50
2023-04-17T07:20:32.166Z,11.70
2023-04-17T07:23:22.276Z,11.60
2023-04-17T07:26:13.000Z,11.80
2023-04-17T07:29:02.019Z,12.00
2023-04-17T07:31:50.787Z,12.10
2023-04-17T07:34:41.391Z,12.10
2023-04-17T07:37:30.214Z,12.30
2023-04-17T07:40:20.620Z,12.30
2023-04-17T07:43:10.494Z,12.50
2023-04-17T07:45:59.335Z,12.30
2023-04-17T07:48:48.268Z,12.80
2023-04-17T07:51:38.452Z,13.00
2023-04-17T07:54:27.562Z,13.30
2023-04-17T07:57:22.276Z,13.10
2023-04-17T08:00:15.354Z,13.00
2023-04-17T08:03:04.536Z,12.70
2023-04-17T08:05:54.314Z,12.20
2023-04-17T08:08:47.546Z,12.50
2023-04-17T08:11:49.577Z,12.40
2023-04-17T08:14:46.246Z,12.70
2023-04-17T08:17:35.193Z,13.20
2023-04-17T08:20:24.608Z,13.50
2023-04-17T08:23:13.536Z,12.80
2023-04-17T08:26:02.494Z,13.10
2023-04-17T08:28:53.797Z,12.80
2023-04-17T08:31:44.210Z,12.60
2023-04-17T08:34:33.403Z,12.30
2023-04-17T08:37:36.226Z,12.30
2023-04-17T08:40:47.378Z,12.30
2023-04-17T08:43:39.163Z,12.50
2023-04-17T08:46:28.573Z,12.10
2023-04-17T08:49:18.868Z,12.20
2023-04-17T08:52:08.285Z,12.50
2023-04-17T08:54:57.207Z,12.40
2023-04-17T08:57:56.507Z,12.70
2023-04-17T09:00:46.551Z,13.40
2023-04-17T09:03:42.951Z,14.50
2023-04-17T09:06:53.066Z,14.30
2023-04-17T09:09:51.483Z,14.40
2023-04-17T09:12:42.172Z,15.00
2023-04-17T09:15:31.136Z,15.80
2023-04-17T09:18:26.837Z,15.30
2023-04-17T09:21:18.782Z,15.20
2023-04-17T09:24:10.221Z,14.90
2023-04-17T09:27:22.792Z,15.80
2023-04-17T09:30:12.069Z,15.20
2023-04-17T09:33:12.192Z,14.90
2023-04-17T09:36:22.239Z,15.40
2023-04-17T09:39:21.052Z,16.80
2023-04-17T09:42:10.496Z,16.20
2023-04-17T09:44:59.232Z,16.20
2023-04-17T09:47:49.142Z,15.80
2023-04-17T09:50:38.964Z,15.50
2023-04-17T09:53:28.229Z,15.20
2023-04-17T09:56:22.011Z,14.80
2023-04-17T09:59:11.177Z,15.20
2023-04-17T10:02:00.408Z,15.20
2023-04-17T10:04:49.606Z,14.70
2023-04-17T10:07:40.207Z,14.70
2023-04-17T10:10:31.499Z,14.60
2023-04-17T10:13:27.258Z,14.30
2023-04-17T10:16:16.635Z,14.00
2023-04-17T10:19:29.150Z,14.40
2023-04-17T10:22:34.140Z,14.40
2023-04-17T10:25:24.891Z,14.40
2023-04-17T10:28:13.823Z,14.40
2023-04-17T10:31:04.175Z,14.30
2023-04-17T10:33:54.416Z,14.40
2023-04-17T10:36:52.656Z,14.70
2023-04-17T10:39:52.790Z,15.10
2023-04-17T10:42:41.703Z,14.80
2023-04-17T10:45:53.742Z,14.60
2023-04-17T10:48:52.420Z,14.90
2023-04-17T10:51:42.922Z,15.90
2023-04-17T10:54:34.451Z,15.40
2023-04-17T10:57:53.624Z,15.60
2023-04-17T11:00:53.087Z,16.30
2023-04-17T11:03:43.442Z,18.10
2023-04-17T11:06:37.872Z,18.70
2023-04-17T11:09:28.732Z,16.90
2023-04-17T11:12:17.574Z,16.40
2023-04-17T11:15:08.121Z,16.30
2023-04-17T11:17:57.965Z,16.80
2023-04-17T11:20:47.434Z,17.40
2023-04-17T11:23:37.974Z,17.40
2023-04-17T11:26:26.754Z,17.00
2023-04-17T11:29:16.876Z,16.80
2023-04-17T11:32:06.347Z,16.10
2023-04-17T11:34:56.656Z,16.30
2023-04-17T11:38:07.148Z,15.70
2023-04-17T11:40:59.741Z,15.80
2023-04-17T11:43:48.484Z,15.80
2023-04-17T11:46:37.710Z,15.60
2023-04-17T11:49:27.557Z,15.70
2023-04-17T11:52:18.076Z,15.30
2023-04-17T11:55:10.695Z,15.30
2023-04-17T11:58:02.233Z,15.10
2023-04-17T12:01:06.320Z,15.40
2023-04-17T12:03:56.554Z,15.20
2023-04-17T12:06:45.379Z,15.50
2023-04-17T12:09:35.645Z,15.60
2023-04-17T12:12:24.409Z,15.60
2023-04-17T12:15:14.806Z,15.40
2023-04-17T12:18:06.035Z,15.00
2023-04-17T12:20:54.850Z,15.00
2023-04-17T12:23:44.109Z,15.20
2023-04-17T12:26:32.995Z,15.10
2023-04-17T12:29:32.742Z,14.90
2023-04-17T12:32:32.447Z,15.00
2023-04-17T12:35:21.616Z,14.80
2023-04-17T12:38:10.448Z,14.80
2023-04-17T12:40:59.437Z,14.70
2023-04-17T12:43:48.169Z,14.90
2023-04-17T12:46:37.174Z,15.10
2023-04-17T12:49:27.429Z,15.20
2023-04-17T12:52:16.724Z,15.20
2023-04-17T12:55:07.605Z,15.10
2023-04-17T12:57:56.348Z,15.20
2023-04-17T13:00:45.440Z,15.20
2023-04-17T13:03:34.281Z,15.40
2023-04-17T13:06:24.395Z,15.30
2023-04-17T13:09:13.435Z,15.20
2023-04-17T13:12:02.551Z,15.20
2023-04-17T13:14:51.448Z,15.30
2023-04-17T13:17:40.174Z,15.30
2023-04-17T13:20:29.011Z,15.50
2023-04-17T13:23:19.302Z,15.50
2023-04-17T13:26:08.096Z,15.40
2023-04-17T13:28:56.931Z,15.00
2023-04-17T13:31:45.771Z,15.10
2023-04-17T13:34:34.424Z,15.20
2023-04-17T13:37:23.219Z,15.30
2023-04-17T13:40:15.308Z,15.30
2023-04-17T13:43:06.159Z,15.30
2023-04-17T13:45:56.895Z,15.40
2023-04-17T13:48:45.925Z,15.40
2023-04-17T13:51:34.714Z,15.40
2023-04-17T13:54:23.690Z,15.50
2023-04-17T13:57:14.855Z,15.30
2023-04-17T14:00:04.169Z,15.30
2023-04-17T14:02:53.425Z,15.30
2023-04-17T14:05:42.215Z,15.40
2023-04-17T14:08:31.108Z,15.40
2023-04-17T14:11:19.811Z,15.40
2023-04-17T14:14:10.133Z,15.30
2023-04-17T14:16:58.971Z,15.20
2023-04-17T14:19:47.842Z,15.30
2023-04-17T14:22:36.874Z,15.20
2023-04-17T14:25:25.686Z,15.10
2023-04-17T14:28:14.922Z,15.10
2023-04-17T14:31:08.738Z,14.80
2023-04-17T14:33:57.465Z,14.80
2023-04-17T14:36:46.442Z,14.80
2023-04-17T14:39:35.262Z,14.90
2023-04-17T14:42:24.161Z,14.70
2023-04-17T14:45:13.102Z,14.80
2023-04-17T14:48:03.947Z,14.80
2023-04-17T14:50:52.875Z,14.50
2023-04-17T14:53:42.307Z,14.40
2023-04-17T14:56:31.375Z,14.40
2023-04-17T14:59:20.295Z,14.60
2023-04-17T15:02:09.434Z,14.70
2023-04-17T15:04:59.588Z,14.60
2023-04-17T15:07:48.791Z,14.50
2023-04-17T15:10:50.219Z,14.40
2023-04-17T15:13:40.648Z,14.40
2023-04-17T15:16:29.760Z,14.40
2023-04-17T15:19:22.518Z,14.40
2023-04-17T15:22:12.840Z,14.40
2023-04-17T15:25:01.680Z,14.40
2023-04-17T15:27:52.439Z,14.20
2023-04-17T15:30:41.344Z,14.20
2023-04-17T15:33:31.050Z,14.20
2023-04-17T15:36:19.960Z,14.10
2023-04-17T15:39:10.103Z,14.00
2023-04-17T15:41:59.285Z,14.20
2023-04-17T15:44:48.032Z,14.30
2023-04-17T15:47:36.817Z,14.20
2023-04-17T15:50:25.684Z,14.30
2023-04-17T15:53:14.459Z,14.40
2023-04-17T15:56:07.007Z,14.30
2023-04-17T15:58:55.905Z,14.20
2023-04-17T16:01:48.415Z,14.40
2023-04-17T16:04:39.216Z,14.30
2023-04-17T16:07:28.193Z,14.20
2023-04-17T16:10:16.984Z,14.30
2023-04-17T16:13:07.159Z,14.10
2023-04-17T16:15:55.946Z,14.10
2023-04-17T16:18:47.768Z,14.00
2023-04-17T16:21:39.622Z,14.00
2023-04-17T16:24:31.222Z,13.90
2023-04-17T16:27:20.100Z,13.90
2023-04-17T16:30:11.753Z,13.80
2023-04-17T16:33:00.913Z,13.80
2023-04-17T16:35:49.805Z,13.70
2023-04-17T16:38:38.985Z,13.80
2023-04-17T16:41:28.680Z,13.60
2023-04-17T16:44:18.621Z,13.60
2023-04-17T16:47:13.935Z,13.70
2023-04-17T16:50:03.774Z,13.60
2023-04-17T16:52:52.429Z,13.50
2023-04-17T16:55:41.251Z,13.40
2023-04-17T16:58:29.934Z,13.30
2023-04-17T17:01:18.734Z,13.30
2023-04-17T17:04:09.160Z,13.30
2023-04-17T17:06:57.992Z,13.30
2023-04-17T17:09:46.815Z,13.20
2023-04-17T17:12:36.113Z,13.20
2023-04-17T17:15:25.329Z,13.20
2023-04-17T17:18:14.110Z,13.30
2023-04-17T17:21:05.023Z,13.10
2023-04-17T17:23:53.852Z,13.00
2023-04-17T17:26:42.554Z,13.10
2023-04-17T17:29:31.397Z,13.00
2023-04-17T17:32:20.281Z,12.90
2023-04-17T17:35:10.027Z,13.00
2023-04-17T17:38:00.217Z,12.80
2023-04-17T17:40:49.031Z,12.70
2023-04-17T17:43:38.207Z,12.70
2023-04-17T17:46:27.881Z,12.60
2023-04-17T17:49:17.545Z,12.60
2023-04-17T17:52:06.643Z,12.60
2023-04-17T17:54:57.044Z,12.70
2023-04-17T17:57:49.206Z,12.50
2023-04-17T18:00:38.654Z,12.60
2023-04-17T18:03:27.796Z,12.70
2023-04-17T18:06:16.757Z,12.70
2023-04-17T18:09:05.682Z,12.70
2023-04-17T18:11:55.874Z,12.60
2023-04-17T18:14:44.802Z,12.60
2023-04-17T18:17:33.884Z,12.70
2023-04-17T18:20:23.904Z,12.70
2023-04-17T18:23:12.773Z,12.70
2023-04-17T18:26:02.770Z,12.50
2023-04-17T18:28:53.094Z,12.50
2023-04-17T18:31:41.974Z,12.60
2023-04-17T18:34:31.150Z,12.60
2023-04-17T18:37:19.919Z,12.50
2023-04-17T18:40:10.677Z,12.50
2023-04-17T18:42:59.504Z,12.30
2023-04-17T18:45:49.745Z,12.20
2023-04-17T18:48:38.584Z,12.10
2023-04-17T18:51:27.367Z,12.00
2023-04-17T18:54:16.743Z,12.20
2023-04-17T18:57:05.805Z,12.40
2023-04-17T18:59:54.714Z,12.20
2023-04-17T19:02:45.207Z,12.00
2023-04-17T19:05:36.690Z,12.10
2023-04-17T19:08:25.532Z,12.10
2023-04-17T19:11:14.420Z,12.10
2023-04-17T19:14:03.501Z,12.10
2023-04-17T19:16:53.486Z,12.20
2023-04-17T19:19:43.766Z,12.10
2023-04-17T19:22:32.528Z,12.10
2023-04-17T19:25:21.614Z,12.20
2023-04-17T19:28:11.579Z,12.10
2023-04-17T19:31:01.140Z,12.00
2023-04-17T19:33:49.873Z,11.80
2023-04-17T19:36:40.081Z,11.80
2023-04-17T19:39:29.634Z,12.00
2023-04-17T19:42:18.484Z,11.90
2023-04-17T19:45:08.348Z,12.00
2023-04-17T19:47:57.418Z,12.10
2023-04-17T19:50:46.370Z,12.00
2023-04-17T19:53:38.440Z,12.00
2023-04-17T19:56:27.182Z,11.80
2023-04-17T19:59:16.092Z,11.80
2023-04-17T20:02:05.040Z,11.80
2023-04-17T20:04:54.066Z,11.80
2023-04-17T20:07:42.935Z,11.90
2023-04-17T20:10:33.720Z,11.80
2023-04-17T20:13:22.679Z,11.90
2023-04-17T20:16:11.453Z,11.90
2023-04-17T20:19:00.190Z,12.00
2023-04-17T20:21:49.213Z,11.80
2023-04-17T20:24:38.261Z,11.70
2023-04-17T20:27:28.656Z,11.80
2023-04-17T20:30:17.788Z,11.70
2023-04-17T20:33:06.913Z,11.70
2023-04-17T20:35:55.915Z,11.70
2023-04-17T20:38:44.800Z,11.70
2023-04-17T20:41:34.016Z,11.80
2023-04-17T20:44:25.472Z,11.60
2023-04-17T20:47:14.351Z,11.70
2023-04-17T20:50:03.476Z,11.60
2023-04-17T20:52:52.360Z,11.60
2023-04-17T20:55:41.164Z,11.60
2023-04-17T20:58:29.863Z,11.70
2023-04-17T21:01:20.618Z,11.50
2023-04-17T21:04:11.486Z,11.50
2023-04-17T21:07:00.752Z,11.40
2023-04-17T21:09:50.014Z,11.50
2023-04-17T21:12:38.841Z,11.40
2023-04-17T21:15:27.634Z,11.30
2023-04-17T21:18:17.781Z,11.30
2023-04-17T21:21:06.845Z,11.40
2023-04-17T21:23:55.845Z,11.40
2023-04-17T21:26:44.690Z,11.50
2023-04-17T21:29:33.584Z,11.20
2023-04-17T21:32:22.404Z,11.10
2023-04-17T21:35:12.652Z,11.20
2023-04-17T21:38:01.507Z,11.20
2023-04-17T21:40:51.796Z,11.10
2023-04-17T21:43:40.614Z,11.20
2023-04-17T21:46:29.355Z,11.30
2023-04-17T21:49:18.295Z,11.20
2023-04-17T21:52:08.787Z,11.30
2023-04-17T21:55:02.958Z,11.10
2023-04-17T21:57:51.860Z,11.10
2023-04-17T22:00:41.266Z,10.80
2023-04-17T22:03:30.209Z,10.90
2023-04-17T22:06:19.025Z,10.90
2023-04-17T22:09:09.982Z,10.90
2023-04-17T22:11:58.834Z,10.80
2023-04-17T22:14:48.410Z,10.60
2023-04-17T22:17:37.184Z,10.70
2023-04-17T22:20:26.130Z,10.60
2023-04-17T22:23:14.839Z,10.70
2023-04-17T22:26:05.433Z,10.60
2023-04-17T22:28:54.401Z,10.60
2023-04-17T22:31:43.160Z,10.50
2023-04-17T22:34:32.041Z,10.40
2023-04-17T22:37:20.837Z,10.40
2023-04-17T22:40:10.735Z,10.20
2023-04-17T22:43:01.109Z,10.20
2023-04-17T22:46:11.735Z,10.40
2023-04-17T22:49:01.012Z,10.40
2023-04-17T22:51:49.812Z,10.50
2023-04-17T22:54:38.721Z,10.30
2023-04-17T22:57:27.510Z,10.20
2023-04-17T23:00:20.300Z,9.90
2023-04-17T23:03:09.841Z,9.80
2023-04-17T23:05:58.789Z,10.10
2023-04-17T23:08:47.570Z,10.10
2023-04-17T23:11:36.281Z,9.90
2023-04-17T23:14:26.459Z,9.80
2023-04-17T23:17:16.629Z,9.80
2023-04-17T23:20:08.604Z,9.90
2023-04-17T23:22:57.451Z,10.00
2023-04-17T23:25:46.418Z,9.90
2023-04-17T23:28:35.314Z,9.80
2023-04-17T23:31:24.104Z,9.90
2023-04-17T23:34:14.681Z,9.90
2023-04-17T23:37:03.793Z,9.90
2023-04-17T23:39:52.623Z,9.90
2023-04-17T23:42:42.214Z,10.00
2023-04-17T23:45:30.928Z,9.90
2023-04-17T23:48:19.784Z,10.10
2023-04-17T23:51:10.117Z,10.00
2023-04-17T23:54:00.417Z,10.00
2023-04-17T23:56:49.357Z,10.00
2023-04-17T23:59:38.118Z,9.80
